PWSweather.com
Personal Weather Stations
Station Observations
K4FB1
Clubhouse Heritage, Lakeland, FL 33812

Clubhouse HeritageLakeland, FL 33812

Lat: 27.969224, Lon: -81.897769

Elevation: 145

Station Type: Davis Vantage Pro2

http://www.ClubhouseWX.com

Latest ConditionsUpdated 5:15:00 AM EDT Saturday, Sep 23, 2017
Currently Today's Max Today's Min Today's Average
Temperature 73.1°F22.8°C 76.4°F24.7°C 73.1°F22.8°C 74.3°F23.5°C
Dew Point 69.0°F20.6°C 72.9°F22.7°C 69.0°F20.6°C 70.5°F21.4°C
Winds 1.0 mph NNE1.6 kmh NNE 2.0 mph NE3.2 kmh NE - 0.9 mph 1.4 kmh
Wind Gusts 2.0 mph3.2 kmh 6.0 mph9.7 kmh - -
Humidity 87% 89% 87% 88%
Pressure 29.84 in1010.5 mb 29.89 in1012.2 mb 29.84 in1010.5 mb -
Hour Temp Dew Point Humidity Winds Wind Gusts Pressure Precip Precip Rate Daily Precip Total
05:15 AM 73.1°F22.8°C 69.0°F20.6°C 87% 1.0 mph NNE1.6 kmh NNE 2.0 mph3.2 kmh 29.84 in1010.5 mb 0.00 in0.0 mm 0.00 in0.0 mm 0.00 in0.0 mm
05:10 AM 73.1°F22.8°C 69.0°F20.6°C 87% 1.0 mph NNE1.6 kmh NNE 3.0 mph4.8 kmh 29.84 in1010.5 mb 0.00 in0.0 mm 0.00 in0.0 mm 0.00 in0.0 mm
05:05 AM 73.1°F22.8°C 69.0°F20.6°C 87% 1.0 mph NNE1.6 kmh NNE 3.0 mph4.8 kmh 29.84 in1010.5 mb 0.00 in0.0 mm 0.00 in0.0 mm 0.00 in0.0 mm
05:00 AM 73.1°F22.8°C 69.0°F20.6°C 87% 1.0 mph NNE1.6 kmh NNE 3.0 mph4.8 kmh 29.84 in1010.5 mb 0.00 in0.0 mm 0.00 in0.0 mm 0.00 in0.0 mm
04:55 AM 73.1°F22.8°C 69.0°F20.6°C 87% 1.0 mph NNE1.6 kmh NNE 3.0 mph4.8 kmh 29.84 in1010.5 mb 0.00 in0.0 mm 0.00 in0.0 mm 0.00 in0.0 mm
04:50 AM 73.1°F22.8°C 69.0°F20.6°C 87% 1.0 mph NNE1.6 kmh NNE 3.0 mph4.8 kmh 29.84 in1010.5 mb 0.00 in0.0 mm 0.00 in0.0 mm 0.00 in0.0 mm
04:45 AM 73.1°F22.8°C 69.0°F20.6°C 87% 1.0 mph NNE1.6 kmh NNE 3.0 mph4.8 kmh 29.84 in1010.5 mb 0.00 in0.0 mm 0.00 in0.0 mm 0.00 in0.0 mm
04:40 AM 73.1°F22.8°C 69.0°F20.6°C 87% 1.0 mph NNE1.6 kmh NNE 3.0 mph4.8 kmh 29.85 in1010.8 mb 0.00 in0.0 mm 0.00 in0.0 mm 0.00 in0.0 mm
04:35 AM 73.1°F22.8°C 69.0°F20.6°C 87% 1.0 mph N1.6 kmh N 3.0 mph4.8 kmh 29.84 in1010.5 mb 0.00 in0.0 mm 0.00 in0.0 mm 0.00 in0.0 mm
04:30 AM 73.2°F22.9°C 69.1°F20.6°C 87% 1.0 mph N1.6 kmh N 3.0 mph4.8 kmh 29.85 in1010.8 mb 0.00 in0.0 mm 0.00 in0.0 mm 0.00 in0.0 mm
04:25 AM 73.2°F22.9°C 69.1°F20.6°C 87% 1.0 mph N1.6 kmh N 4.0 mph6.4 kmh 29.85 in1010.8 mb 0.00 in0.0 mm 0.00 in0.0 mm 0.00 in0.0 mm
04:20 AM 73.2°F22.9°C 69.1°F20.6°C 87% 2.0 mph N3.2 kmh N 4.0 mph6.4 kmh 29.85 in1010.8 mb 0.00 in0.0 mm 0.00 in0.0 mm 0.00 in0.0 mm
04:15 AM 73.3°F22.9°C 69.2°F20.7°C 87% 2.0 mph N3.2 kmh N 4.0 mph6.4 kmh 29.85 in1010.8 mb 0.00 in0.0 mm 0.00 in0.0 mm 0.00 in0.0 mm
04:10 AM 73.2°F22.9°C 69.1°F20.6°C 87% 2.0 mph NNW3.2 kmh NNW 4.0 mph6.4 kmh 29.85 in1010.8 mb 0.00 in0.0 mm 0.00 in0.0 mm 0.00 in0.0 mm
04:05 AM 73.2°F22.9°C 69.1°F20.6°C 87% 1.0 mph NNW1.6 kmh NNW 3.0 mph4.8 kmh 29.85 in1010.8 mb 0.00 in0.0 mm 0.00 in0.0 mm 0.00 in0.0 mm
04:00 AM 73.2°F22.9°C 69.1°F20.6°C 87% 1.0 mph N1.6 kmh N 3.0 mph4.8 kmh 29.85 in1010.8 mb 0.00 in0.0 mm 0.00 in0.0 mm 0.00 in0.0 mm
03:55 AM 73.3°F22.9°C 69.2°F20.7°C 87% 1.0 mph N1.6 kmh N 3.0 mph4.8 kmh 29.85 in1010.8 mb 0.00 in0.0 mm 0.00 in0.0 mm 0.00 in0.0 mm
03:50 AM 73.3°F22.9°C 69.2°F20.7°C 87% 1.0 mph N1.6 kmh N 3.0 mph4.8 kmh 29.85 in1010.8 mb 0.00 in0.0 mm 0.00 in0.0 mm 0.00 in0.0 mm
03:45 AM 73.2°F22.9°C 69.1°F20.6°C 87% 1.0 mph N1.6 kmh N 3.0 mph4.8 kmh 29.85 in1010.8 mb 0.00 in0.0 mm 0.00 in0.0 mm 0.00 in0.0 mm
03:40 AM 73.2°F22.9°C 69.4°F20.8°C 88% 1.0 mph N1.6 kmh N 2.0 mph3.2 kmh 29.86 in1011.2 mb 0.00 in0.0 mm 0.00 in0.0 mm 0.00 in0.0 mm
03:35 AM 73.3°F22.9°C 69.5°F20.8°C 88% Calm Calm 1.0 mph1.6 kmh 29.86 in1011.2 mb 0.00 in0.0 mm 0.00 in0.0 mm 0.00 in0.0 mm
03:30 AM 73.4°F23.0°C 69.6°F20.9°C 88% Calm Calm 2.0 mph3.2 kmh 29.86 in1011.2 mb 0.00 in0.0 mm 0.00 in0.0 mm 0.00 in0.0 mm
03:25 AM 73.5°F23.1°C 69.7°F20.9°C 88% Calm Calm 2.0 mph3.2 kmh 29.86 in1011.2 mb 0.00 in0.0 mm 0.00 in0.0 mm 0.00 in0.0 mm
03:20 AM 73.6°F23.1°C 69.8°F21.0°C 88% Calm Calm 2.0 mph3.2 kmh 29.86 in1011.2 mb 0.00 in0.0 mm 0.00 in0.0 mm 0.00 in0.0 mm
03:15 AM 73.7°F23.2°C 69.9°F21.1°C 88% 1.0 mph N1.6 kmh N 2.0 mph3.2 kmh 29.86 in1011.2 mb 0.00 in0.0 mm 0.00 in0.0 mm 0.00 in0.0 mm
03:10 AM 73.7°F23.2°C 69.9°F21.1°C 88% 1.0 mph NNE1.6 kmh NNE 3.0 mph4.8 kmh 29.86 in1011.2 mb 0.00 in0.0 mm 0.00 in0.0 mm 0.00 in0.0 mm
03:05 AM 73.8°F23.2°C 70.0°F21.1°C 88% 1.0 mph NNE1.6 kmh NNE 3.0 mph4.8 kmh 29.87 in1011.5 mb 0.00 in0.0 mm 0.00 in0.0 mm 0.00 in0.0 mm
03:00 AM 73.8°F23.2°C 70.0°F21.1°C 88% 1.0 mph N1.6 kmh N 2.0 mph3.2 kmh 29.87 in1011.5 mb 0.00 in0.0 mm 0.00 in0.0 mm 0.00 in0.0 mm
02:55 AM 73.9°F23.3°C 70.1°F21.2°C 88% 1.0 mph N1.6 kmh N 3.0 mph4.8 kmh 29.87 in1011.5 mb 0.00 in0.0 mm 0.00 in0.0 mm 0.00 in0.0 mm
02:50 AM 73.9°F23.3°C 70.1°F21.2°C 88% 1.0 mph N1.6 kmh N 3.0 mph4.8 kmh 29.87 in1011.5 mb 0.00 in0.0 mm 0.00 in0.0 mm 0.00 in0.0 mm
02:45 AM 74.0°F23.3°C 70.2°F21.2°C 88% 1.0 mph N1.6 kmh N 3.0 mph4.8 kmh 29.87 in1011.5 mb 0.00 in0.0 mm 0.00 in0.0 mm 0.00 in0.0 mm
02:40 AM 74.0°F23.3°C 70.2°F21.2°C 88% 1.0 mph N1.6 kmh N 3.0 mph4.8 kmh 29.87 in1011.5 mb 0.00 in0.0 mm 0.00 in0.0 mm 0.00 in0.0 mm
02:35 AM 74.0°F23.3°C 70.2°F21.2°C 88% 1.0 mph N1.6 kmh N 3.0 mph4.8 kmh 29.87 in1011.5 mb 0.00 in0.0 mm 0.00 in0.0 mm 0.00 in0.0 mm
02:30 AM 74.0°F23.3°C 70.2°F21.2°C 88% 1.0 mph NNE1.6 kmh NNE 2.0 mph3.2 kmh 29.87 in1011.5 mb 0.00 in0.0 mm 0.00 in0.0 mm 0.00 in0.0 mm
02:25 AM 74.0°F23.3°C 70.6°F21.4°C 89% 1.0 mph NNE1.6 kmh NNE 2.0 mph3.2 kmh 29.87 in1011.5 mb 0.00 in0.0 mm 0.00 in0.0 mm 0.00 in0.0 mm
02:20 AM 74.0°F23.3°C 70.6°F21.4°C 89% 1.0 mph NNE1.6 kmh NNE 2.0 mph3.2 kmh 29.88 in1011.9 mb 0.00 in0.0 mm 0.00 in0.0 mm 0.00 in0.0 mm
02:15 AM 74.1°F23.4°C 70.6°F21.4°C 89% 1.0 mph NNE1.6 kmh NNE 2.0 mph3.2 kmh 29.87 in1011.5 mb 0.00 in0.0 mm 0.00 in0.0 mm 0.00 in0.0 mm
02:10 AM 74.2°F23.4°C 70.7°F21.5°C 89% 1.0 mph NNE1.6 kmh NNE 2.0 mph3.2 kmh 29.87 in1011.5 mb 0.00 in0.0 mm 0.00 in0.0 mm 0.00 in0.0 mm
02:05 AM 74.3°F23.5°C 70.8°F21.6°C 89% Calm Calm 2.0 mph3.2 kmh 29.88 in1011.9 mb 0.00 in0.0 mm 0.00 in0.0 mm 0.00 in0.0 mm
02:00 AM 74.3°F23.5°C 70.8°F21.6°C 89% Calm Calm 2.0 mph3.2 kmh 29.88 in1011.9 mb 0.00 in0.0 mm 0.00 in0.0 mm 0.00 in0.0 mm
01:55 AM 74.4°F23.6°C 70.9°F21.6°C 89% Calm Calm 2.0 mph3.2 kmh 29.88 in1011.9 mb 0.00 in0.0 mm 0.00 in0.0 mm 0.00 in0.0 mm
01:50 AM 74.5°F23.6°C 71.0°F21.7°C 89% Calm Calm 2.0 mph3.2 kmh 29.88 in1011.9 mb 0.00 in0.0 mm 0.00 in0.0 mm 0.00 in0.0 mm
01:45 AM 74.6°F23.7°C 71.1°F21.7°C 89% Calm Calm 1.0 mph1.6 kmh 29.88 in1011.9 mb 0.00 in0.0 mm 0.00 in0.0 mm 0.00 in0.0 mm
01:40 AM 74.7°F23.7°C 71.2°F21.8°C 89% Calm Calm 1.0 mph1.6 kmh 29.88 in1011.9 mb 0.00 in0.0 mm 0.00 in0.0 mm 0.00 in0.0 mm
01:35 AM 74.8°F23.8°C 71.3°F21.8°C 89% 1.0 mph NNE1.6 kmh NNE 2.0 mph3.2 kmh 29.88 in1011.9 mb 0.00 in0.0 mm 0.00 in0.0 mm 0.00 in0.0 mm
01:30 AM 74.9°F23.8°C 71.4°F21.9°C 89% 1.0 mph NNE1.6 kmh NNE 3.0 mph4.8 kmh 29.88 in1011.9 mb 0.00 in0.0 mm 0.00 in0.0 mm 0.00 in0.0 mm
01:25 AM 75.0°F23.9°C 71.5°F21.9°C 89% 1.0 mph NE1.6 kmh NE 3.0 mph4.8 kmh 29.88 in1011.9 mb 0.00 in0.0 mm 0.00 in0.0 mm 0.00 in0.0 mm
01:20 AM 75.1°F23.9°C 71.6°F22.0°C 89% 1.0 mph NE1.6 kmh NE 3.0 mph4.8 kmh 29.88 in1011.9 mb 0.00 in0.0 mm 0.00 in0.0 mm 0.00 in0.0 mm
01:15 AM 75.2°F24.0°C 71.7°F22.1°C 89% 1.0 mph ENE1.6 kmh ENE 2.0 mph3.2 kmh 29.88 in1011.9 mb 0.00 in0.0 mm 0.00 in0.0 mm 0.00 in0.0 mm
01:10 AM 75.3°F24.1°C 71.8°F22.1°C 89% 1.0 mph ENE1.6 kmh ENE 2.0 mph3.2 kmh 29.88 in1011.9 mb 0.00 in0.0 mm 0.00 in0.0 mm 0.00 in0.0 mm
01:05 AM 75.4°F24.1°C 71.9°F22.2°C 89% 1.0 mph E1.6 kmh E 2.0 mph3.2 kmh 29.88 in1011.9 mb 0.00 in0.0 mm 0.00 in0.0 mm 0.00 in0.0 mm
01:00 AM 75.5°F24.2°C 72.0°F22.2°C 89% 1.0 mph E1.6 kmh E 3.0 mph4.8 kmh 29.88 in1011.9 mb 0.00 in0.0 mm 0.00 in0.0 mm 0.00 in0.0 mm
12:55 AM 75.6°F24.2°C 72.1°F22.3°C 89% 1.0 mph E1.6 kmh E 5.0 mph8.0 kmh 29.88 in1011.9 mb 0.00 in0.0 mm 0.00 in0.0 mm 0.00 in0.0 mm
12:50 AM 75.6°F24.2°C 72.1°F22.3°C 89% 1.0 mph ENE1.6 kmh ENE 5.0 mph8.0 kmh 29.88 in1011.9 mb 0.00 in0.0 mm 0.00 in0.0 mm 0.00 in0.0 mm
12:45 AM 75.7°F24.3°C 72.2°F22.3°C 89% 1.0 mph E1.6 kmh E 4.0 mph6.4 kmh 29.88 in1011.9 mb 0.00 in0.0 mm 0.00 in0.0 mm 0.00 in0.0 mm
12:40 AM 75.8°F24.3°C 72.3°F22.4°C 89% 1.0 mph E1.6 kmh E 3.0 mph4.8 kmh 29.87 in1011.5 mb 0.00 in0.0 mm 0.00 in0.0 mm 0.00 in0.0 mm
12:35 AM 75.8°F24.3°C 72.3°F22.4°C 89% 1.0 mph ENE1.6 kmh ENE 4.0 mph6.4 kmh 29.88 in1011.9 mb 0.00 in0.0 mm 0.00 in0.0 mm 0.00 in0.0 mm
12:30 AM 75.9°F24.4°C 72.4°F22.4°C 89% 2.0 mph E3.2 kmh E 4.0 mph6.4 kmh 29.88 in1011.9 mb 0.00 in0.0 mm 0.00 in0.0 mm 0.00 in0.0 mm
12:25 AM 76.0°F24.4°C 72.5°F22.5°C 89% 1.0 mph ENE1.6 kmh ENE 3.0 mph4.8 kmh 29.88 in1011.9 mb 0.00 in0.0 mm 0.00 in0.0 mm 0.00 in0.0 mm
12:20 AM 76.1°F24.5°C 72.6°F22.6°C 89% 1.0 mph E1.6 kmh E 5.0 mph8.0 kmh 29.89 in1012.2 mb 0.00 in0.0 mm 0.00 in0.0 mm 0.00 in0.0 mm
12:15 AM 76.2°F24.6°C 72.7°F22.6°C 89% 2.0 mph ENE3.2 kmh ENE 5.0 mph8.0 kmh 29.89 in1012.2 mb 0.00 in0.0 mm 0.00 in0.0 mm 0.00 in0.0 mm
12:10 AM 76.3°F24.6°C 72.8°F22.7°C 89% 2.0 mph NE3.2 kmh NE 5.0 mph8.0 kmh 29.89 in1012.2 mb 0.00 in0.0 mm 0.00 in0.0 mm 0.00 in0.0 mm
12:05 AM 76.4°F24.7°C 72.9°F22.7°C 89% 1.0 mph ENE1.6 kmh ENE 4.0 mph6.4 kmh 29.89 in1012.2 mb 0.00 in0.0 mm 0.00 in0.0 mm 0.00 in0.0 mm
12:00 AM 76.4°F24.7°C 72.9°F22.7°C 89% 1.0 mph ENE1.6 kmh ENE 6.0 mph9.7 kmh 29.89 in1012.2 mb 0.00 in0.0 mm 0.00 in0.0 mm 0.00 in0.0 mm